createdAt,value
2022-11-02T00:00:34.955Z,5.70
2022-11-02T00:01:35.029Z,5.80
2022-11-02T00:02:35.100Z,6.10
2022-11-02T00:03:34.980Z,6.80
2022-11-02T00:04:35.020Z,6.40
2022-11-02T00:05:35.007Z,6.30
2022-11-02T00:06:35.077Z,7.00
2022-11-02T00:07:35.054Z,7.10
2022-11-02T00:08:35.120Z,6.00
2022-11-02T00:09:35.114Z,6.30
2022-11-02T00:10:35.182Z,6.40
2022-11-02T00:11:35.200Z,6.20
2022-11-02T00:12:35.219Z,6.60
2022-11-02T00:13:35.200Z,6.00
2022-11-02T00:14:35.249Z,6.60
2022-11-02T00:15:35.250Z,5.80
2022-11-02T00:16:35.333Z,6.10
2022-11-02T00:17:35.293Z,5.50
2022-11-02T00:18:35.311Z,7.00
2022-11-02T00:19:35.324Z,5.90
2022-11-02T00:20:35.353Z,6.60
2022-11-02T00:21:35.394Z,7.10
2022-11-02T00:22:35.397Z,6.30
2022-11-02T00:23:35.385Z,6.50
2022-11-02T00:24:39.315Z,5.80
2022-11-02T00:25:39.457Z,6.10
2022-11-02T00:26:39.488Z,6.40
2022-11-02T00:27:39.502Z,6.60
2022-11-02T00:28:39.495Z,5.80
2022-11-02T00:29:39.534Z,6.30
2022-11-02T00:30:39.521Z,5.70
2022-11-02T00:31:39.639Z,6.40
2022-11-02T00:32:39.558Z,6.20
2022-11-02T00:33:39.621Z,6.50
2022-11-02T00:34:39.590Z,6.20
2022-11-02T00:35:39.662Z,6.10
2022-11-02T00:36:39.686Z,7.20
2022-11-02T00:37:39.676Z,6.10
2022-11-02T00:38:39.669Z,5.80
2022-11-02T00:39:39.697Z,6.00
2022-11-02T00:40:39.692Z,6.20
2022-11-02T00:41:39.731Z,6.30
2022-11-02T00:42:39.711Z,6.50
2022-11-02T00:43:39.758Z,6.80
2022-11-02T00:44:39.760Z,6.40
2022-11-02T00:45:39.787Z,6.70
2022-11-02T00:46:39.809Z,6.80
2022-11-02T00:47:39.832Z,6.10
2022-11-02T00:48:39.827Z,6.80
2022-11-02T00:49:39.868Z,5.40
2022-11-02T00:50:39.855Z,6.60
2022-11-02T00:51:39.906Z,6.30
2022-11-02T00:52:39.914Z,6.30
2022-11-02T00:53:39.966Z,6.70
2022-11-02T00:54:39.956Z,5.60
2022-11-02T00:55:39.999Z,6.50
2022-11-02T00:56:40.041Z,6.70
2022-11-02T00:57:39.992Z,7.20
2022-11-02T00:58:40.006Z,6.20
2022-11-02T00:59:40.079Z,6.90
2022-11-02T01:00:40.037Z,6.20
2022-11-02T01:01:40.244Z,6.30
2022-11-02T01:02:40.305Z,7.30
2022-11-02T01:03:40.127Z,5.80
2022-11-02T01:04:40.134Z,6.70
2022-11-02T01:05:40.169Z,7.00
2022-11-02T01:06:40.195Z,6.50
2022-11-02T01:07:40.207Z,6.40
2022-11-02T01:08:40.185Z,6.10
2022-11-02T01:09:40.226Z,6.20
2022-11-02T01:10:42.817Z,6.30
2022-11-02T01:11:45.181Z,5.70
2022-11-02T01:12:45.271Z,6.50
2022-11-02T01:13:45.249Z,6.80
2022-11-02T01:14:45.295Z,6.10
2022-11-02T01:15:45.293Z,6.00
2022-11-02T01:17:45.312Z,6.00
2022-11-02T01:18:45.342Z,6.10
2022-11-02T01:19:45.332Z,5.50
2022-11-02T01:20:45.365Z,5.90
2022-11-02T01:21:45.388Z,6.10
2022-11-02T01:22:45.410Z,5.90
2022-11-02T01:23:45.408Z,6.60
2022-11-02T01:24:45.444Z,6.10
2022-11-02T01:25:45.466Z,5.70
2022-11-02T01:26:45.524Z,6.40
2022-11-02T01:27:45.507Z,6.00
2022-11-02T01:28:45.507Z,6.10
2022-11-02T01:29:45.522Z,5.40
2022-11-02T01:30:45.560Z,5.80
2022-11-02T01:31:45.587Z,6.30
2022-11-02T01:32:45.600Z,5.90
2022-11-02T01:33:45.598Z,5.70
2022-11-02T01:34:45.635Z,5.90
2022-11-02T01:35:45.632Z,5.70
2022-11-02T01:36:50.600Z,5.90
2022-11-02T01:37:50.685Z,6.10
2022-11-02T01:38:50.694Z,5.90
2022-11-02T01:39:50.692Z,5.90
2022-11-02T01:40:50.718Z,5.40
2022-11-02T01:41:50.758Z,5.50
2022-11-02T01:44:44.659Z,6.70
2022-11-02T01:45:44.762Z,10.30
2022-11-02T01:46:44.746Z,9.40
2022-11-02T01:47:44.806Z,8.80
2022-11-02T01:48:44.779Z,8.20
2022-11-02T01:49:44.817Z,8.60
2022-11-02T01:50:44.804Z,9.50
2022-11-02T01:51:44.878Z,9.80
2022-11-02T01:52:44.834Z,9.70
2022-11-02T01:53:44.860Z,9.10
2022-11-02T01:54:44.867Z,9.80
2022-11-02T01:55:50.767Z,9.40
2022-11-02T01:56:55.830Z,9.00
2022-11-02T01:57:55.929Z,9.00
2022-11-02T01:58:55.902Z,9.00
2022-11-02T01:59:55.949Z,9.30
2022-11-02T02:00:55.943Z,9.10
2022-11-02T02:01:56.151Z,8.20
2022-11-02T02:02:56.092Z,8.50
2022-11-02T02:03:55.966Z,8.10
2022-11-02T02:04:55.951Z,7.90
2022-11-02T02:05:55.996Z,7.90
2022-11-02T02:06:55.988Z,8.30
2022-11-02T02:07:56.056Z,7.90
2022-11-02T02:08:56.011Z,7.90
2022-11-02T02:09:56.042Z,7.90
2022-11-02T02:10:56.031Z,7.30
2022-11-02T02:11:56.108Z,7.60
2022-11-02T02:12:56.053Z,7.50
2022-11-02T02:13:56.095Z,7.30
2022-11-02T02:14:56.091Z,7.60
2022-11-02T02:15:56.116Z,7.10
2022-11-02T02:16:56.145Z,7.40
2022-11-02T02:17:56.195Z,7.30
2022-11-02T02:18:56.133Z,7.60
2022-11-02T02:19:56.179Z,7.50
2022-11-02T02:20:56.179Z,7.10
2022-11-02T02:21:56.233Z,7.40
2022-11-02T02:22:56.194Z,7.10
2022-11-02T02:23:56.217Z,8.20
2022-11-02T02:24:56.212Z,6.70
2022-11-02T02:25:56.265Z,7.30
2022-11-02T02:26:56.804Z,7.70
2022-11-02T02:27:56.315Z,7.30
2022-11-02T02:28:56.295Z,7.60
2022-11-02T02:29:56.319Z,6.60
2022-11-02T02:30:56.312Z,7.40
2022-11-02T02:31:56.385Z,7.00
2022-11-02T02:32:56.326Z,7.40
2022-11-02T02:33:56.363Z,6.40
2022-11-02T02:34:56.358Z,6.60
2022-11-02T02:35:56.375Z,6.50
2022-11-02T02:36:56.406Z,5.90
2022-11-02T02:37:56.393Z,6.20
2022-11-02T02:38:56.375Z,5.60
2022-11-02T02:39:56.448Z,6.10
2022-11-02T02:40:56.382Z,6.10
2022-11-02T02:41:56.417Z,6.40
2022-11-02T02:42:56.397Z,6.30
2022-11-02T02:43:56.445Z,6.30
2022-11-02T02:44:56.414Z,5.50
2022-11-02T02:45:56.453Z,6.40
2022-11-02T02:46:56.525Z,6.30
2022-11-02T02:47:56.490Z,6.30
2022-11-02T02:48:56.443Z,6.10
2022-11-02T02:49:56.469Z,6.60
2022-11-02T02:50:56.461Z,6.50
2022-11-02T02:51:56.506Z,6.40
2022-11-02T02:52:56.480Z,6.40
2022-11-02T02:53:56.501Z,6.70
2022-11-02T02:54:56.495Z,6.40
2022-11-02T02:55:56.509Z,6.90
2022-11-02T02:56:56.495Z,6.20
2022-11-02T02:57:56.554Z,6.50
2022-11-02T02:58:56.504Z,6.90
2022-11-02T02:59:56.542Z,6.80
2022-11-02T03:00:56.570Z,7.10
2022-11-02T03:01:56.819Z,6.80
2022-11-02T03:02:56.527Z,6.40
2022-11-02T03:03:56.569Z,6.70
2022-11-02T03:04:56.555Z,6.80
2022-11-02T03:05:56.565Z,6.60
2022-11-02T03:06:56.544Z,7.00
2022-11-02T03:07:56.592Z,7.30
2022-11-02T03:08:56.561Z,7.10
2022-11-02T03:09:56.591Z,7.10
2022-11-02T03:10:56.601Z,6.50
2022-11-02T03:11:56.635Z,7.20
2022-11-02T03:12:56.580Z,7.00
2022-11-02T03:13:56.593Z,7.50
2022-11-02T03:14:56.578Z,7.70
2022-11-02T03:15:56.602Z,7.70
2022-11-02T03:16:56.612Z,7.10
2022-11-02T03:17:56.639Z,7.30
2022-11-02T03:18:56.646Z,7.30
2022-11-02T03:19:56.628Z,7.00
2022-11-02T03:20:56.623Z,7.50
2022-11-02T03:21:56.665Z,7.50
2022-11-02T03:22:56.692Z,7.80
2022-11-02T03:23:56.679Z,7.70
2022-11-02T03:24:56.693Z,7.10
2022-11-02T03:25:56.710Z,7.60
2022-11-02T03:26:56.750Z,7.10
2022-11-02T03:27:56.793Z,6.60
2022-11-02T03:28:56.751Z,7.10
2022-11-02T03:29:56.786Z,7.10
2022-11-02T03:30:56.783Z,7.60
2022-11-02T03:31:56.821Z,7.70
2022-11-02T03:32:56.846Z,7.20
2022-11-02T03:33:56.860Z,7.70
2022-11-02T03:34:56.831Z,8.20
2022-11-02T03:35:56.878Z,7.90
2022-11-02T03:36:56.929Z,8.50
2022-11-02T03:37:56.932Z,8.20
2022-11-02T03:38:56.874Z,8.50
2022-11-02T03:39:56.931Z,8.30
2022-11-02T03:40:56.896Z,7.90
2022-11-02T03:41:56.924Z,8.40
2022-11-02T03:42:56.911Z,8.70
2022-11-02T03:43:56.985Z,8.80
2022-11-02T03:44:56.937Z,9.80
2022-11-02T03:45:57.007Z,8.00
2022-11-02T03:46:56.957Z,8.30
2022-11-02T03:47:57.007Z,8.90
2022-11-02T03:48:56.973Z,8.00
2022-11-02T03:49:56.995Z,8.80
2022-11-02T03:50:56.987Z,8.80
2022-11-02T03:51:57.031Z,8.60
2022-11-02T03:52:57.005Z,9.10
2022-11-02T03:53:57.038Z,8.90
2022-11-02T03:54:57.005Z,9.00
2022-11-02T03:55:57.024Z,9.00
2022-11-02T03:56:57.057Z,9.00
2022-11-02T03:57:57.071Z,8.40
2022-11-02T03:58:57.064Z,9.30
2022-11-02T03:59:57.069Z,9.80
2022-11-02T04:00:57.048Z,9.20
2022-11-02T04:01:57.127Z,8.80
2022-11-02T04:02:57.050Z,8.20
2022-11-02T04:03:57.093Z,9.10
2022-11-02T04:04:57.058Z,8.90
2022-11-02T04:05:57.116Z,9.40
2022-11-02T04:06:57.095Z,8.90
2022-11-02T04:07:59.418Z,9.80
2022-11-02T04:08:57.094Z,8.90
2022-11-02T04:09:57.157Z,8.70
2022-11-02T04:10:57.100Z,9.00
2022-11-02T04:11:57.134Z,9.30
2022-11-02T04:12:57.113Z,9.40
2022-11-02T04:13:57.143Z,10.40
2022-11-02T04:14:57.157Z,9.50
2022-11-02T04:15:57.174Z,10.00
2022-11-02T04:16:57.142Z,8.90
2022-11-02T04:17:57.197Z,9.70
2022-11-02T04:18:57.149Z,9.20
2022-11-02T04:19:57.192Z,9.40
2022-11-02T04:21:01.120Z,10.30
2022-11-02T04:22:01.190Z,9.50
2022-11-02T04:23:06.070Z,9.60
2022-11-02T04:24:06.199Z,9.80
2022-11-02T04:25:06.191Z,8.80
2022-11-02T04:26:06.197Z,9.90
2022-11-02T04:27:06.168Z,9.50
2022-11-02T04:28:06.729Z,9.80
2022-11-02T04:29:06.199Z,10.60
2022-11-02T04:30:06.240Z,9.60
2022-11-02T04:31:06.202Z,9.90
2022-11-02T04:32:06.226Z,9.60
2022-11-02T04:33:06.199Z,10.60
2022-11-02T04:34:06.227Z,9.70
2022-11-02T04:35:06.214Z,10.50
2022-11-02T04:36:18.108Z,10.20
2022-11-02T04:37:06.237Z,9.70
2022-11-02T04:38:06.705Z,10.50
2022-11-02T04:39:06.245Z,10.30
2022-11-02T04:40:06.268Z,9.70
2022-11-02T04:41:06.255Z,10.30
2022-11-02T04:42:06.286Z,11.30
2022-11-02T04:43:06.268Z,10.00
2022-11-02T04:44:06.303Z,9.80
2022-11-02T04:45:06.265Z,9.80
2022-11-02T04:46:06.302Z,10.00
2022-11-02T04:47:06.298Z,9.70
2022-11-02T04:48:06.725Z,9.70
2022-11-02T04:49:06.302Z,11.10
2022-11-02T04:50:06.353Z,10.30
2022-11-02T04:51:06.324Z,10.40
2022-11-02T04:52:06.349Z,10.00
2022-11-02T04:53:06.324Z,9.70
2022-11-02T04:54:06.377Z,9.60
2022-11-02T04:55:06.339Z,10.00
2022-11-02T04:56:06.372Z,9.40
2022-11-02T04:57:06.352Z,9.40
2022-11-02T04:58:06.980Z,10.10
2022-11-02T04:59:06.369Z,10.10
2022-11-02T05:00:06.495Z,10.80
2022-11-02T05:01:06.397Z,9.80
2022-11-02T05:02:06.583Z,9.60
2022-11-02T05:03:09.585Z,9.90
2022-11-02T05:04:06.435Z,10.00
2022-11-02T05:05:06.425Z,10.30
2022-11-02T05:06:11.377Z,10.20
2022-11-02T05:07:17.363Z,9.40
2022-11-02T05:08:17.494Z,10.40
2022-11-02T05:09:17.465Z,10.10
2022-11-02T05:10:17.471Z,9.80
2022-11-02T05:11:17.473Z,10.00
2022-11-02T05:12:17.515Z,10.00
2022-11-02T05:13:17.477Z,10.80
2022-11-02T05:14:17.517Z,10.10
2022-11-02T05:15:17.499Z,9.60
2022-11-02T05:16:17.525Z,10.50
2022-11-02T05:17:18.534Z,10.30
2022-11-02T05:18:19.207Z,9.90
2022-11-02T05:19:18.501Z,10.70
2022-11-02T05:20:18.531Z,11.00
2022-11-02T05:21:18.514Z,9.90
2022-11-02T05:22:18.527Z,11.10
2022-11-02T05:23:18.539Z,11.00
2022-11-02T05:24:18.531Z,11.10
2022-11-02T05:25:18.552Z,11.00
2022-11-02T05:26:19.003Z,11.50
2022-11-02T05:27:18.538Z,10.50
2022-11-02T05:28:18.582Z,10.50
2022-11-02T05:29:18.597Z,10.90
2022-11-02T05:30:18.582Z,10.90
2022-11-02T05:31:18.560Z,11.00
2022-11-02T05:32:18.584Z,10.60
2022-11-02T05:33:18.548Z,10.10
2022-11-02T05:34:18.571Z,9.90
2022-11-02T05:35:18.549Z,10.50
2022-11-02T05:36:23.329Z,10.40
2022-11-02T05:37:18.585Z,10.10
2022-11-02T05:38:18.593Z,10.50
2022-11-02T05:39:18.576Z,12.10
2022-11-02T05:40:18.639Z,11.40
2022-11-02T05:41:18.577Z,11.00
2022-11-02T05:42:18.639Z,9.90
2022-11-02T05:43:18.577Z,11.30
2022-11-02T05:44:18.609Z,9.90
2022-11-02T05:45:22.103Z,10.60
2022-11-02T05:46:18.638Z,11.00
2022-11-02T05:47:18.613Z,11.70
2022-11-02T05:48:18.703Z,11.70
2022-11-02T05:49:18.627Z,12.60
2022-11-02T05:50:18.690Z,11.70
2022-11-02T05:51:18.656Z,12.00
2022-11-02T05:52:18.688Z,11.90
2022-11-02T05:53:18.716Z,11.10
2022-11-02T05:54:18.712Z,11.60
2022-11-02T05:55:18.708Z,12.00
2022-11-02T05:56:24.662Z,12.10
2022-11-02T05:57:18.704Z,12.30
2022-11-02T05:58:18.759Z,11.80
2022-11-02T05:59:18.726Z,11.20
2022-11-02T06:00:18.806Z,10.60
2022-11-02T06:01:18.749Z,11.10
2022-11-02T06:02:20.870Z,11.20
2022-11-02T06:03:18.726Z,11.60
2022-11-02T06:04:18.816Z,11.80
2022-11-02T06:05:18.761Z,11.20
2022-11-02T06:06:18.757Z,11.30
2022-11-02T06:09:12.680Z,11.00
2022-11-02T06:10:12.827Z,10.90
2022-11-02T06:11:12.793Z,10.60
2022-11-02T06:12:12.802Z,11.10
2022-11-02T06:13:12.788Z,11.60
2022-11-02T06:14:12.823Z,10.30
2022-11-02T06:15:12.814Z,10.30
2022-11-02T06:16:12.876Z,10.60
2022-11-02T06:17:12.814Z,10.50
2022-11-02T06:18:12.833Z,11.40
2022-11-02T06:20:12.857Z,11.90
2022-11-02T06:21:12.876Z,12.80
2022-11-02T06:22:12.875Z,11.30
2022-11-02T06:23:12.828Z,12.00
2022-11-02T06:24:12.862Z,11.50
2022-11-02T06:25:12.838Z,11.50
2022-11-02T06:26:12.857Z,11.90
2022-11-02T06:27:12.822Z,10.30
2022-11-02T06:28:12.863Z,10.90
2022-11-02T06:29:12.836Z,11.20
2022-11-02T06:30:12.893Z,11.00
2022-11-02T06:31:12.864Z,11.10
2022-11-02T06:32:12.900Z,11.30
2022-11-02T06:33:13.548Z,12.20
2022-11-02T06:34:12.948Z,12.60
2022-11-02T06:35:13.793Z,11.90
2022-11-02T06:36:20.361Z,11.70
2022-11-02T06:37:12.927Z,12.10
2022-11-02T06:38:12.943Z,12.30
2022-11-02T06:39:12.925Z,11.80
2022-11-02T06:40:12.941Z,12.30
2022-11-02T06:41:12.941Z,12.00
2022-11-02T06:42:13.070Z,11.40
2022-11-02T06:43:17.357Z,11.80
2022-11-02T06:44:12.977Z,11.50
2022-11-02T06:45:12.966Z,11.60
2022-11-02T06:46:13.014Z,13.50
2022-11-02T06:47:12.988Z,13.20
2022-11-02T06:48:13.148Z,13.40
2022-11-02T06:49:13.004Z,13.00
2022-11-02T06:50:13.017Z,12.70
2022-11-02T06:52:18.942Z,11.40
2022-11-02T06:53:19.083Z,12.90
2022-11-02T06:54:19.047Z,12.50
2022-11-02T06:55:19.070Z,12.40
2022-11-02T06:56:19.210Z,11.00
2022-11-02T06:57:19.085Z,12.00
2022-11-02T06:58:19.069Z,12.00
2022-11-02T06:59:19.097Z,12.30
2022-11-02T07:00:22.594Z,12.00
2022-11-02T07:01:19.179Z,11.70
2022-11-02T07:02:19.144Z,11.90
2022-11-02T07:03:19.071Z,13.00
2022-11-02T07:04:19.048Z,12.90
2022-11-02T07:05:19.212Z,12.30
2022-11-02T07:06:19.053Z,11.50
2022-11-02T07:07:19.088Z,11.80
2022-11-02T07:08:19.059Z,11.80
2022-11-02T07:09:19.071Z,12.00
2022-11-02T07:10:19.069Z,10.90
2022-11-02T07:11:19.231Z,12.10
2022-11-02T07:12:22.882Z,12.90
2022-11-02T07:13:19.122Z,11.80
2022-11-02T07:14:19.108Z,11.90
2022-11-02T07:15:19.141Z,11.70
2022-11-02T07:16:19.146Z,13.30
2022-11-02T07:17:19.290Z,12.10
2022-11-02T07:18:19.144Z,12.70
2022-11-02T07:19:24.054Z,12.80
2022-11-02T07:20:24.163Z,12.50
2022-11-02T07:21:24.156Z,12.90
2022-11-02T07:22:24.213Z,12.00
2022-11-02T07:23:24.356Z,12.60
2022-11-02T07:24:24.177Z,12.70
2022-11-02T07:25:24.145Z,12.80
2022-11-02T07:26:24.164Z,11.50
2022-11-02T07:27:24.163Z,11.90
2022-11-02T07:28:24.294Z,12.10
2022-11-02T07:29:24.140Z,12.30
2022-11-02T07:30:24.157Z,12.00
2022-11-02T07:31:24.150Z,14.40
2022-11-02T07:32:24.185Z,12.40
2022-11-02T07:33:24.136Z,12.80
2022-11-02T07:34:24.180Z,12.60
2022-11-02T07:35:24.182Z,12.30
2022-11-02T07:36:24.700Z,12.70
2022-11-02T07:37:24.290Z,12.10
2022-11-02T07:38:24.199Z,12.00
2022-11-02T07:39:24.182Z,11.70
2022-11-02T07:40:24.320Z,11.70
2022-11-02T07:41:24.191Z,11.30
2022-11-02T07:42:24.207Z,12.10
2022-11-02T07:43:24.209Z,11.60
2022-11-02T07:44:24.174Z,11.60
2022-11-02T07:45:24.201Z,11.60
2022-11-02T07:46:24.246Z,11.60
2022-11-02T07:47:24.228Z,13.00
2022-11-02T07:48:24.383Z,12.50
2022-11-02T07:49:24.248Z,12.10
2022-11-02T07:50:24.344Z,11.30
2022-11-02T07:51:24.234Z,12.90
2022-11-02T07:52:24.271Z,11.40
2022-11-02T07:53:24.275Z,12.10
2022-11-02T07:54:24.296Z,11.80
2022-11-02T07:55:24.268Z,11.70
2022-11-02T07:56:24.296Z,11.80
2022-11-02T07:57:24.262Z,11.40
2022-11-02T07:58:24.289Z,11.80
2022-11-02T07:59:24.434Z,11.70
2022-11-02T08:00:24.311Z,11.80
2022-11-02T08:01:24.328Z,11.30
2022-11-02T08:02:29.257Z,12.50
2022-11-02T08:03:29.403Z,12.10
2022-11-02T08:04:29.283Z,13.40
2022-11-02T08:05:29.322Z,12.40
2022-11-02T08:06:29.286Z,11.20
2022-11-02T08:07:29.411Z,11.60
2022-11-02T08:08:29.286Z,11.60
2022-11-02T08:09:29.420Z,12.00
2022-11-02T08:10:29.309Z,11.90
2022-11-02T08:11:29.335Z,11.70
2022-11-02T08:12:29.317Z,11.80
2022-11-02T08:13:32.654Z,11.90
2022-11-02T08:14:29.331Z,12.00
2022-11-02T08:15:29.364Z,12.90
2022-11-02T08:16:29.360Z,11.50
2022-11-02T08:17:29.385Z,12.30
2022-11-02T08:18:29.380Z,13.00
2022-11-02T08:19:29.519Z,11.90
2022-11-02T08:20:29.546Z,12.00
2022-11-02T08:21:29.414Z,12.10
2022-11-02T08:22:29.408Z,13.10
2022-11-02T08:23:29.447Z,12.90
2022-11-02T08:24:29.427Z,12.40
2022-11-02T08:25:29.566Z,11.00
2022-11-02T08:26:29.501Z,12.60
2022-11-02T08:27:29.490Z,12.60
2022-11-02T08:28:29.511Z,12.10
2022-11-02T08:29:34.429Z,11.90
2022-11-02T08:30:34.542Z,12.70
2022-11-02T08:31:34.521Z,12.50
2022-11-02T08:32:34.558Z,12.80
2022-11-02T08:33:34.580Z,12.20
2022-11-02T08:34:34.585Z,12.70
2022-11-02T08:35:34.708Z,13.10
2022-11-02T08:36:34.616Z,11.90
2022-11-02T08:37:34.636Z,12.40
2022-11-02T08:38:34.654Z,11.90
2022-11-02T08:39:34.638Z,12.80
2022-11-02T08:40:34.701Z,12.20
2022-11-02T08:41:34.680Z,12.30
2022-11-02T08:42:34.701Z,12.10
2022-11-02T08:43:34.711Z,11.50
2022-11-02T08:44:37.661Z,13.00
2022-11-02T08:46:00.495Z,12.10
2022-11-02T08:46:34.791Z,13.10
2022-11-02T08:47:34.744Z,12.90
2022-11-02T08:48:34.788Z,12.70
2022-11-02T08:49:34.788Z,12.50
2022-11-02T08:50:34.825Z,12.60
2022-11-02T08:51:34.903Z,12.30
2022-11-02T08:52:40.295Z,12.20
2022-11-02T08:53:34.827Z,12.00
2022-11-02T08:54:34.857Z,11.70
2022-11-02T08:55:34.848Z,12.40
2022-11-02T08:56:34.877Z,11.50
2022-11-02T08:57:34.971Z,11.60
2022-11-02T08:58:34.886Z,11.50
2022-11-02T08:59:34.904Z,13.30
2022-11-02T09:00:35.003Z,11.90
2022-11-02T09:01:34.958Z,12.00
2022-11-02T09:02:35.031Z,12.10
2022-11-02T09:03:35.058Z,11.90
2022-11-02T09:04:34.924Z,12.90
2022-11-02T09:05:34.942Z,11.90
2022-11-02T09:06:34.988Z,11.80
2022-11-02T09:07:34.946Z,11.80
2022-11-02T09:08:34.974Z,12.60
2022-11-02T09:09:35.124Z,12.00
2022-11-02T09:10:34.983Z,11.50
2022-11-02T09:11:35.069Z,11.90
2022-11-02T09:12:34.979Z,12.50
2022-11-02T09:13:35.053Z,12.70
2022-11-02T09:14:35.008Z,12.20
2022-11-02T09:15:34.998Z,12.50
2022-11-02T09:16:40.162Z,13.20
2022-11-02T09:17:35.017Z,12.30
2022-11-02T09:18:35.078Z,12.60
2022-11-02T09:19:35.056Z,12.60
2022-11-02T09:20:35.173Z,12.40
2022-11-02T09:21:35.055Z,12.40
2022-11-02T09:22:35.238Z,11.70
2022-11-02T09:23:35.093Z,11.80
2022-11-02T09:24:35.125Z,11.90
2022-11-02T09:27:29.117Z,11.90
2022-11-02T09:28:29.194Z,11.40
2022-11-02T09:29:29.162Z,11.70
2022-11-02T09:30:29.200Z,11.90
2022-11-02T09:31:29.205Z,11.50
2022-11-02T09:32:29.383Z,11.40
2022-11-02T09:33:29.370Z,11.00
2022-11-02T09:34:33.140Z,11.20
2022-11-02T09:35:33.272Z,11.40
2022-11-02T09:36:33.693Z,10.70
2022-11-02T09:37:33.451Z,11.60
2022-11-02T09:38:33.299Z,11.60
2022-11-02T09:39:33.341Z,11.30
2022-11-02T09:40:33.312Z,10.80
2022-11-02T09:41:33.346Z,11.30
2022-11-02T09:42:33.329Z,10.80
2022-11-02T09:43:33.508Z,10.40
2022-11-02T09:44:33.344Z,10.70
2022-11-02T09:45:33.371Z,10.10
2022-11-02T09:46:33.360Z,11.60
2022-11-02T09:48:14.986Z,11.90
2022-11-02T09:48:33.692Z,12.00
2022-11-02T09:49:33.435Z,11.00
2022-11-02T09:50:33.442Z,12.00
2022-11-02T09:51:33.463Z,12.00
2022-11-02T09:52:33.447Z,11.30
2022-11-02T09:53:33.585Z,10.80
2022-11-02T09:54:33.589Z,10.90
2022-11-02T09:55:33.513Z,11.40
2022-11-02T09:56:33.530Z,11.30
2022-11-02T09:57:33.570Z,10.90
2022-11-02T09:58:33.549Z,10.10
2022-11-02T09:59:33.729Z,10.60
2022-11-02T10:00:33.575Z,10.50
2022-11-02T10:01:38.609Z,10.50
2022-11-02T10:02:39.125Z,10.00
2022-11-02T10:03:38.666Z,10.60
2022-11-02T10:04:38.830Z,11.30
2022-11-02T10:05:38.673Z,9.90
2022-11-02T10:06:38.708Z,9.10
2022-11-02T10:07:38.706Z,9.20
2022-11-02T10:08:38.741Z,8.80
2022-11-02T10:09:38.755Z,9.60
2022-11-02T10:10:38.820Z,9.10
2022-11-02T10:11:38.783Z,8.90
2022-11-02T10:12:38.861Z,10.10
2022-11-02T10:13:38.856Z,8.90
2022-11-02T10:14:38.981Z,10.00
2022-11-02T10:15:38.988Z,9.50
2022-11-02T10:16:38.926Z,10.20
2022-11-02T10:17:38.929Z,10.60
2022-11-02T10:18:38.960Z,9.10
2022-11-02T10:19:38.990Z,9.30
2022-11-02T10:20:39.105Z,9.80
2022-11-02T10:21:39.000Z,9.10
2022-11-02T10:22:39.053Z,9.20
2022-11-02T10:23:39.054Z,9.10
2022-11-02T10:24:39.211Z,9.30
2022-11-02T10:25:39.104Z,9.40
2022-11-02T10:26:39.291Z,8.80
2022-11-02T10:27:39.232Z,9.20
2022-11-02T10:28:39.230Z,9.60
2022-11-02T10:29:39.195Z,8.80
2022-11-02T10:30:39.230Z,9.00
2022-11-02T10:31:39.247Z,9.20
2022-11-02T10:32:39.484Z,7.80
2022-11-02T10:33:39.729Z,8.20
2022-11-02T10:34:39.477Z,8.40
2022-11-02T10:36:04.358Z,8.70
2022-11-02T10:36:39.343Z,8.30
2022-11-02T10:37:39.327Z,7.80
2022-11-02T10:38:43.392Z,7.80
2022-11-02T10:39:43.403Z,8.30
2022-11-02T10:40:43.415Z,8.50
2022-11-02T10:41:43.426Z,7.90
2022-11-02T10:42:43.432Z,7.30
2022-11-02T10:43:45.226Z,8.20
2022-11-02T10:44:43.563Z,7.40
2022-11-02T10:45:43.507Z,7.70
2022-11-02T10:46:43.529Z,7.40
2022-11-02T10:47:43.545Z,8.10
2022-11-02T10:48:43.559Z,7.40
2022-11-02T10:49:43.622Z,7.60
2022-11-02T10:50:43.608Z,7.90
2022-11-02T10:51:43.646Z,7.00
2022-11-02T10:52:43.683Z,7.60
2022-11-02T10:53:44.065Z,8.10
2022-11-02T10:54:43.857Z,7.10
2022-11-02T10:55:43.801Z,7.50
2022-11-02T10:56:43.760Z,7.20
2022-11-02T10:57:43.818Z,6.90
2022-11-02T10:58:43.807Z,6.80
2022-11-02T10:59:43.884Z,7.10
2022-11-02T11:00:43.904Z,6.60
2022-11-02T11:01:43.991Z,7.10
2022-11-02T11:02:43.967Z,7.40
2022-11-02T11:03:43.955Z,7.70
2022-11-02T11:04:44.073Z,7.80
2022-11-02T11:05:43.984Z,7.30
2022-11-02T11:06:44.007Z,7.00
2022-11-02T11:07:44.006Z,6.90
2022-11-02T11:08:44.029Z,7.00
2022-11-02T11:09:46.624Z,7.00
2022-11-02T11:10:44.080Z,6.50
2022-11-02T11:11:44.124Z,6.80
2022-11-02T11:12:44.124Z,9.00
2022-11-02T11:16:44.365Z,6.40
2022-11-02T11:19:48.300Z,7.60
2022-11-02T11:20:48.474Z,7.30
2022-11-02T11:21:48.368Z,8.00
2022-11-02T11:22:48.379Z,7.00
2022-11-02T11:23:48.379Z,7.00
2022-11-02T11:24:48.559Z,7.00
2022-11-02T11:25:48.455Z,6.90
2022-11-02T11:26:48.635Z,6.70
2022-11-02T11:27:48.481Z,7.20
2022-11-02T11:28:49.536Z,7.30
2022-11-02T11:29:49.531Z,7.40
2022-11-02T11:30:59.860Z,7.90
2022-11-02T11:31:50.036Z,8.00
2022-11-02T11:32:49.626Z,7.30
2022-11-02T11:33:49.647Z,7.20
2022-11-02T11:34:49.770Z,7.10
2022-11-02T11:35:49.690Z,6.40
2022-11-02T11:36:49.745Z,7.40
2022-11-02T11:37:49.711Z,6.80
2022-11-02T11:38:49.773Z,6.90
2022-11-02T11:39:53.912Z,7.40
2022-11-02T11:40:49.799Z,6.70
2022-11-02T11:41:50.138Z,6.90
2022-11-02T11:43:00.030Z,7.90
2022-11-02T11:43:55.889Z,7.30
2022-11-02T11:44:55.906Z,6.80
2022-11-02T11:45:57.307Z,8.00
2022-11-02T11:46:56.046Z,7.00
2022-11-02T11:47:55.975Z,6.50
2022-11-02T11:48:55.974Z,7.70
2022-11-02T11:50:14.533Z,6.80
2022-11-02T11:51:01.040Z,6.90
2022-11-02T11:52:01.094Z,7.10
2022-11-02T11:53:01.089Z,6.90
2022-11-02T11:54:01.120Z,7.40
2022-11-02T11:55:01.277Z,7.30
2022-11-02T11:56:01.154Z,7.40
2022-11-02T11:57:01.357Z,7.10
2022-11-02T11:58:01.501Z,6.60
2022-11-02T11:59:01.263Z,6.50
2022-11-02T12:00:01.278Z,6.90
2022-11-02T12:01:05.946Z,7.30
2022-11-02T12:02:01.428Z,6.90
2022-11-02T12:03:01.500Z,7.60
2022-11-02T12:04:01.389Z,7.50
2022-11-02T12:05:01.559Z,7.30
2022-11-02T12:06:01.401Z,7.10
2022-11-02T12:07:01.460Z,6.90
2022-11-02T12:08:01.641Z,7.10
2022-11-02T12:09:04.399Z,7.40
2022-11-02T12:10:01.530Z,7.30
2022-11-02T12:11:01.587Z,6.80
2022-11-02T12:12:01.581Z,6.60
2022-11-02T12:13:01.894Z,6.80
2022-11-02T12:14:01.663Z,7.20
2022-11-02T12:16:07.772Z,7.30
2022-11-02T12:17:07.758Z,6.80
2022-11-02T12:18:08.167Z,6.90
2022-11-02T12:19:07.819Z,7.00
2022-11-02T12:20:07.822Z,7.00
2022-11-02T12:21:07.874Z,7.40
2022-11-02T12:22:07.879Z,7.20
2022-11-02T12:23:08.304Z,7.10
2022-11-02T12:24:07.917Z,7.10
2022-11-02T12:25:07.981Z,7.40
2022-11-02T12:26:08.090Z,7.00
2022-11-02T12:27:08.036Z,6.10
2022-11-02T12:28:08.141Z,7.20
2022-11-02T12:29:08.081Z,6.20
2022-11-02T12:30:08.085Z,6.30
2022-11-02T12:31:08.113Z,5.70
2022-11-02T12:32:08.143Z,6.40
2022-11-02T12:33:08.515Z,7.50
2022-11-02T12:34:08.203Z,6.90
2022-11-02T12:37:37.164Z,7.10
2022-11-02T12:38:17.390Z,6.90
2022-11-02T12:39:17.296Z,7.20
2022-11-02T12:40:17.381Z,5.70
2022-11-02T12:41:17.360Z,6.60
2022-11-02T12:42:17.390Z,6.60
2022-11-02T12:43:17.382Z,6.60
2022-11-02T12:44:17.537Z,5.90
2022-11-02T12:45:17.461Z,6.20
2022-11-02T12:46:22.414Z,7.10
2022-11-02T12:47:26.576Z,6.70
2022-11-02T12:48:26.555Z,7.10
2022-11-02T12:49:26.675Z,6.80
2022-11-02T12:50:26.596Z,6.40
2022-11-02T12:51:26.616Z,5.80
2022-11-02T12:52:26.670Z,6.50
2022-11-02T12:53:26.682Z,6.30
2022-11-02T12:54:26.849Z,5.70
2022-11-02T12:55:26.747Z,5.90
2022-11-02T12:56:26.771Z,6.90
2022-11-02T12:57:26.924Z,6.60
2022-11-02T12:58:31.715Z,6.70
2022-11-02T12:59:31.965Z,6.60
2022-11-02T13:00:32.378Z,6.40
2022-11-02T13:01:32.177Z,6.40
2022-11-02T13:02:31.945Z,5.90
2022-11-02T13:03:36.892Z,8.00
2022-11-02T13:04:39.789Z,7.20
2022-11-02T13:05:37.007Z,6.30
2022-11-02T13:06:37.042Z,6.60
2022-11-02T13:07:37.200Z,7.00
2022-11-02T13:08:37.138Z,5.90
2022-11-02T13:09:37.130Z,6.50
2022-11-02T13:10:37.282Z,5.60
2022-11-02T13:11:37.190Z,6.20
2022-11-02T13:12:37.247Z,6.40
2022-11-02T13:13:37.242Z,5.80
2022-11-02T13:14:43.186Z,6.50
2022-11-02T13:15:43.463Z,6.30
2022-11-02T13:16:43.319Z,6.20
2022-11-02T13:17:43.503Z,6.40
2022-11-02T13:18:43.370Z,6.30
2022-11-02T13:19:43.484Z,5.50
2022-11-02T13:20:43.442Z,6.10
2022-11-02T13:21:44.404Z,6.00
2022-11-02T13:22:43.499Z,5.70
2022-11-02T13:23:43.662Z,5.50
2022-11-02T13:24:43.549Z,6.80
2022-11-02T13:25:43.593Z,6.00
2022-11-02T13:26:43.606Z,6.40
2022-11-02T13:27:43.679Z,5.60